Time;durP1;ratioP1;P1;durP2;ratioP2;P2;SDS_P1;SDS_P2;PMS_P1;PMS_P2;Temp;Humidity;BMP_temperature;BMP_pressure;BME280_temperature;BME280_humidity;BME280_pressure;Samples;Min_cycle;Max_cycle;Signal;HPM_P1;HPM_P2
2021/01/22 00:01:49;;;;;;;37.27;20.13;;;;;;;4.38;68.12;98815.53;146800;1150;104515;-70
2021/01/22 00:04:52;;;;;;;39.75;20.08;;;;;;;4.37;68.46;98816.50;146600;1150;104529;-70
2021/01/22 00:07:55;;;;;;;34.57;19.50;;;;;;;4.35;68.23;98807.89;146691;1150;104486;-69
2021/01/22 00:10:58;;;;;;;37.90;19.90;;;;;;;4.30;68.75;98806.53;146632;1150;104606;-70
2021/01/22 00:14:01;;;;;;;41.35;20.75;;;;;;;4.34;68.55;98807.08;146604;1149;104591;-70
2021/01/22 00:17:05;;;;;;;41.60;20.12;;;;;;;4.41;68.31;98802.05;146711;1150;104482;-69
2021/01/22 00:20:11;;;;;;;39.80;20.27;;;;;;;4.45;68.49;98806.87;147080;1150;104598;-69
2021/01/22 00:23:14;;;;;;;36.25;19.75;;;;;;;4.49;68.62;98794.20;146791;1150;104501;-69
2021/01/22 00:26:17;;;;;;;42.33;20.00;;;;;;;4.51;68.47;98797.52;146598;1150;104632;-69
2021/01/22 00:29:20;;;;;;;39.53;20.23;;;;;;;4.50;68.38;98799.33;146741;1149;104617;-69
2021/01/22 00:32:23;;;;;;;39.58;19.95;;;;;;;4.48;68.06;98787.23;146939;1149;104589;-69
2021/01/22 00:35:27;;;;;;;40.38;22.85;;;;;;;4.47;68.02;98790.88;146970;1150;104473;-69
2021/01/22 00:38:30;;;;;;;41.50;21.30;;;;;;;4.44;68.50;98791.16;146930;1149;104551;-69
2021/01/22 00:41:33;;;;;;;41.45;20.45;;;;;;;4.40;68.11;98795.91;146962;1150;104668;-70
2021/01/22 00:44:37;;;;;;;42.70;21.75;;;;;;;4.39;68.22;98796.91;146762;1150;104626;-70
2021/01/22 00:47:40;;;;;;;41.42;21.68;;;;;;;4.39;68.20;98796.91;147033;1148;104502;-71
2021/01/22 00:50:44;;;;;;;46.97;21.57;;;;;;;4.39;68.62;98790.77;146960;1150;104652;-71
2021/01/22 00:53:48;;;;;;;44.42;20.77;;;;;;;4.44;68.60;98791.16;146885;1149;104558;-67
2021/01/22 00:56:51;;;;;;;39.45;19.02;;;;;;;4.48;67.81;98792.52;146976;1150;104547;-69
2021/01/22 00:59:54;;;;;;;40.00;19.30;;;;;;;4.51;68.15;98787.77;146865;1150;104550;-69
2021/01/22 01:02:57;;;;;;;40.00;21.37;;;;;;;4.49;68.43;98789.73;146858;1150;104483;-69
2021/01/22 01:06:00;;;;;;;40.43;19.95;;;;;;;4.48;68.04;98766.95;147151;1150;105062;-69
2021/01/22 01:09:05;;;;;;;38.93;21.30;;;;;;;4.46;68.10;98770.71;147089;1150;104950;-69
2021/01/22 01:12:28;;;;;;;38.95;21.40;;;;;;;4.39;67.65;98767.00;146809;1150;104636;-68
2021/01/22 01:15:58;;;;;;;37.17;20.85;;;;;;;4.30;67.33;98756.37;146872;1150;104566;-68
2021/01/22 01:19:01;;;;;;;35.80;20.77;;;;;;;4.24;67.73;98746.41;146991;1150;104460;-68
2021/01/22 01:22:04;;;;;;;37.60;21.07;;;;;;;4.18;68.57;98752.30;146984;1151;104476;-68
2021/01/22 01:25:10;;;;;;;39.73;21.20;;;;;;;4.11;68.26;98753.86;146811;1148;104597;-68
2021/01/22 01:28:14;;;;;;;39.53;20.97;;;;;;;4.04;68.30;98750.15;146946;1150;104635;-69
2021/01/22 01:31:17;;;;;;;38.70;21.00;;;;;;;3.95;67.96;98740.50;147084;1150;104559;-69
2021/01/22 01:34:20;;;;;;;39.33;20.08;;;;;;;3.95;68.02;98743.14;147079;1150;104520;-69
2021/01/22 01:37:23;;;;;;;37.83;19.60;;;;;;;3.98;68.34;98740.19;146993;1150;104560;-69
2021/01/22 01:40:27;;;;;;;34.90;18.65;;;;;;;3.97;68.46;98727.98;146997;1149;104575;-68
2021/01/22 01:43:30;;;;;;;34.90;19.33;;;;;;;3.97;67.98;98730.63;146767;1149;104605;-69
2021/01/22 01:46:34;;;;;;;38.50;19.90;;;;;;;3.95;67.90;98729.95;146992;1150;104636;-67
2021/01/22 01:49:37;;;;;;;41.18;21.15;;;;;;;3.90;68.01;98723.28;147008;1150;104486;-68
2021/01/22 01:52:41;;;;;;;40.43;20.90;;;;;;;3.88;68.58;98727.05;146994;1150;104466;-68
2021/01/22 01:55:44;;;;;;;35.55;20.85;;;;;;;3.82;67.97;98732.93;146947;1150;104488;-68
2021/01/22 01:58:47;;;;;;;40.67;20.50;;;;;;;3.76;68.69;98738.80;147079;1151;104651;-68
2021/01/22 02:01:51;;;;;;;37.35;20.72;;;;;;;3.69;68.04;98723.53;146983;1150;104530;-68
2021/01/22 02:04:55;;;;;;;43.17;21.50;;;;;;;3.63;68.78;98728.58;146774;1150;104509;-68
2021/01/22 02:07:59;;;;;;;42.03;22.42;;;;;;;3.59;68.59;98716.66;146894;1150;104541;-66
2021/01/22 02:11:03;;;;;;;43.50;21.75;;;;;;;3.63;69.28;98725.94;147039;1150;104584;-68
2021/01/22 02:14:07;;;;;;;39.63;20.03;;;;;;;3.64;68.16;98723.16;147010;1150;104556;-69
2021/01/22 02:17:11;;;;;;;41.15;22.10;;;;;;;3.65;68.79;98721.34;146964;1150;104534;-67
2021/01/22 02:20:32;;;;;;;40.43;21.00;;;;;;;3.67;68.71;98708.84;147069;1149;104556;-67
2021/01/22 02:23:40;;;;;;;41.28;21.93;;;;;;;3.70;68.41;98711.20;146964;1150;104554;-68
2021/01/22 02:26:56;;;;;;;39.85;21.30;;;;;;;3.72;69.09;98690.77;146970;1149;104474;-67
2021/01/22 02:29:59;;;;;;;42.20;21.80;;;;;;;3.69;68.09;98691.88;146948;1150;105236;-67
2021/01/22 02:33:06;;;;;;;39.90;21.68;;;;;;;3.68;68.71;98692.05;146982;1150;104580;-67
2021/01/22 02:36:11;;;;;;;47.73;23.57;;;;;;;3.67;67.69;98682.47;146778;1149;104908;-68
2021/01/22 02:39:16;;;;;;;42.55;23.05;;;;;;;3.67;68.09;98678.01;146958;1150;104560;-67
2021/01/22 02:42:23;;;;;;;43.17;23.02;;;;;;;3.66;68.69;98671.09;147023;1149;104492;-68
2021/01/22 02:45:26;;;;;;;44.77;23.57;;;;;;;3.65;68.75;98669.42;147051;1150;104649;-69
2021/01/22 02:48:30;;;;;;;42.33;22.80;;;;;;;3.63;69.01;98660.00;146892;1150;104553;-69
2021/01/22 02:51:33;;;;;;;44.55;23.30;;;;;;;3.58;68.41;98649.91;146860;1150;104940;-70
2021/01/22 02:54:36;;;;;;;42.17;22.70;;;;;;;3.61;68.39;98646.14;146887;1150;104510;-69
2021/01/22 02:57:49;;;;;;;39.40;18.98;;;;;;;3.66;68.17;98638.62;146954;1149;104466;-68
2021/01/22 03:01:00;;;;;;;38.63;21.00;;;;;;;3.71;67.93;98631.06;147018;1150;104644;-69
2021/01/22 03:04:09;;;;;;;39.58;21.97;;;;;;;3.78;67.70;98634.77;147016;1150;104663;-68
2021/01/22 03:07:19;;;;;;;41.63;21.73;;;;;;;3.83;68.27;98629.89;146876;1150;104940;-68
2021/01/22 03:10:25;;;;;;;37.35;19.82;;;;;;;3.86;67.39;98619.02;147013;1150;104909;-68
2021/01/22 03:13:29;;;;;;;37.98;20.72;;;;;;;3.84;68.55;98620.98;146867;1149;104474;-68
2021/01/22 03:16:34;;;;;;;37.23;20.50;;;;;;;3.86;68.31;98628.75;146954;1150;104470;-67
2021/01/22 03:19:45;;;;;;;40.30;20.87;;;;;;;3.85;67.70;98627.08;147137;1149;104560;-67
2021/01/22 03:22:48;;;;;;;35.50;19.50;;;;;;;3.82;67.40;98628.22;147005;1150;104472;-69
2021/01/22 03:25:51;;;;;;;37.30;20.17;;;;;;;3.84;68.66;98633.34;146995;1150;104465;-68
2021/01/22 03:28:55;;;;;;;37.75;20.17;;;;;;;3.82;67.75;98630.03;147072;1148;104489;-70
2021/01/22 03:32:00;;;;;;;39.70;19.67;;;;;;;3.79;68.51;98622.41;147003;1151;104599;-69
2021/01/22 03:35:03;;;;;;;35.73;18.87;;;;;;;3.81;68.19;98618.66;147088;1149;104538;-69
2021/01/22 03:38:06;;;;;;;31.73;17.63;;;;;;;3.87;68.08;98607.50;147039;1150;104508;-69
2021/01/22 03:41:10;;;;;;;33.53;18.57;;;;;;;3.92;67.66;98607.85;147016;1149;104463;-69
2021/01/22 03:44:13;;;;;;;35.95;19.55;;;;;;;3.95;67.91;98605.92;147044;1150;104508;-70
2021/01/22 03:47:17;;;;;;;40.20;19.73;;;;;;;3.98;67.59;98611.70;147110;1148;104604;-69
2021/01/22 03:50:20;;;;;;;38.02;19.65;;;;;;;4.01;68.21;98610.59;147149;1150;104575;-70
2021/01/22 03:53:23;;;;;;;39.03;19.33;;;;;;;4.00;67.98;98612.38;147038;1150;104642;-69
2021/01/22 03:56:26;;;;;;;36.65;19.95;;;;;;;3.96;67.49;98608.38;146813;1150;104548;-70
2021/01/22 03:59:29;;;;;;;39.15;19.77;;;;;;;3.95;67.64;98611.20;146821;1150;104501;-70
2021/01/22 04:02:32;;;;;;;38.00;18.77;;;;;;;3.93;67.10;98606.06;146906;1150;104762;-68
2021/01/22 04:05:35;;;;;;;46.18;22.98;;;;;;;3.91;67.73;98600.94;147012;1150;104578;-70
2021/01/22 04:08:39;;;;;;;41.70;21.07;;;;;;;3.87;67.52;98586.39;146849;1150;104585;-71
2021/01/22 04:11:42;;;;;;;43.02;20.97;;;;;;;3.84;67.09;98584.04;146675;1150;104476;-69
2021/01/22 04:14:45;;;;;;;40.07;20.10;;;;;;;3.83;67.50;98587.67;146843;1149;104508;-72
2021/01/22 04:17:48;;;;;;;37.70;18.55;;;;;;;3.80;68.36;98584.50;147187;1150;104962;-71
2021/01/22 04:20:51;;;;;;;38.28;19.35;;;;;;;3.79;68.36;98582.83;147060;1149;104558;-71
2021/01/22 04:23:54;;;;;;;36.77;18.67;;;;;;;3.83;67.45;98581.55;146940;1149;104557;-70
2021/01/22 04:26:58;;;;;;;34.10;16.33;;;;;;;3.91;67.57;98574.55;146946;1150;104498;-71
2021/01/22 04:30:01;;;;;;;38.93;18.20;;;;;;;3.99;67.57;98567.69;146791;1150;104588;-67
2021/01/22 04:33:05;;;;;;;34.60;17.90;;;;;;;4.03;67.36;98571.67;147005;1150;104575;-69
2021/01/22 04:36:08;;;;;;;33.80;17.00;;;;;;;4.05;67.44;98565.25;147072;1150;104532;-70
2021/01/22 04:39:12;;;;;;;35.23;18.45;;;;;;;4.08;68.14;98564.95;147084;1149;104607;-70
2021/01/22 04:42:15;;;;;;;32.47;17.17;;;;;;;4.07;67.75;98555.37;146993;1150;104857;-71
2021/01/22 04:45:18;;;;;;;33.28;16.93;;;;;;;4.02;67.37;98552.38;146707;1150;104579;-69
2021/01/22 04:48:22;;;;;;;33.85;15.80;;;;;;;3.97;67.98;98540.63;147055;1149;104671;-68
2021/01/22 04:51:25;;;;;;;30.62;16.70;;;;;;;3.91;67.33;98529.69;147094;1148;104499;-69
2021/01/22 04:54:36;;;;;;;76.35;18.27;;;;;;;3.83;67.19;98524.35;147145;1149;105025;-69
2021/01/22 04:57:42;;;;;;;26.70;15.35;;;;;;;3.76;68.53;98511.93;147098;1150;104482;-68
2021/01/22 05:00:45;;;;;;;29.33;14.77;;;;;;;3.72;68.17;98511.40;147093;1150;104479;-69
2021/01/22 05:03:49;;;;;;;25.40;14.17;;;;;;;3.67;68.41;98514.47;147067;1149;104660;-69
2021/01/22 05:06:53;;;;;;;29.77;15.87;;;;;;;3.64;68.23;98514.80;147081;1150;104867;-70
2021/01/22 05:09:56;;;;;;;27.50;15.03;;;;;;;3.59;68.31;98511.77;147050;1150;104482;-70
2021/01/22 05:12:59;;;;;;;28.20;14.00;;;;;;;3.59;67.59;98518.87;147102;1150;104557;-70
2021/01/22 05:16:14;;;;;;;404.37;258.60;;;;;;;3.66;68.44;98517.28;147057;1151;104554;-69
2021/01/22 05:19:23;;;;;;;518.10;321.67;;;;;;;3.77;68.83;98526.76;147040;1148;104638;-69
2021/01/22 05:22:27;;;;;;;356.40;256.25;;;;;;;3.84;67.62;98530.45;147081;1151;104522;-69
2021/01/22 05:25:30;;;;;;;253.07;168.35;;;;;;;3.89;67.62;98518.46;147021;1149;104557;-69
2021/01/22 05:28:35;;;;;;;810.73;550.00;;;;;;;3.91;68.38;98520.95;147073;1150;104491;-70
2021/01/22 05:31:39;;;;;;;693.87;503.25;;;;;;;3.91;68.30;98516.50;147062;1150;104905;-68
2021/01/22 05:34:46;;;;;;;548.23;406.93;;;;;;;3.91;67.97;98516.50;147033;1150;104625;-68
2021/01/22 05:37:53;;;;;;;186.28;124.00;;;;;;;3.89;68.39;98518.46;147070;1150;104538;-68
2021/01/22 05:40:59;;;;;;;455.55;385.60;;;;;;;3.87;68.51;98519.61;147040;1151;104483;-66
2021/01/22 05:44:02;;;;;;;192.30;150.45;;;;;;;3.82;67.66;98522.69;146917;1148;104565;-68
2021/01/22 05:47:07;;;;;;;197.32;154.75;;;;;;;3.77;67.66;98518.84;147087;1150;104561;-68
2021/01/22 05:50:12;;;;;;;92.22;82.10;;;;;;;3.73;68.60;98516.53;147247;1148;104615;-67
2021/01/22 05:53:17;;;;;;;42.23;30.00;;;;;;;3.70;68.60;98516.00;148145;1148;104559;-67
2021/01/22 05:56:20;;;;;;;40.60;28.50;;;;;;;3.73;68.25;98520.95;147071;1148;104466;-68
2021/01/22 05:59:23;;;;;;;27.17;17.48;;;;;;;3.81;67.40;98522.83;147009;1148;104483;-67
2021/01/22 06:02:31;;;;;;;27.00;17.57;;;;;;;3.86;68.68;98524.03;147098;1148;104488;-69
2021/01/22 06:05:34;;;;;;;27.77;18.75;;;;;;;3.91;68.53;98518.31;147049;1148;104564;-68
2021/01/22 06:08:49;;;;;;;27.00;17.17;;;;;;;3.93;68.11;98518.98;147051;1150;104541;-68
2021/01/22 06:11:53;;;;;;;24.33;15.47;;;;;;;3.91;67.97;98521.77;147068;1150;104492;-67
2021/01/22 06:14:58;;;;;;;22.27;12.13;;;;;;;3.93;67.82;98525.08;147054;1151;104825;-67
2021/01/22 06:18:02;;;;;;;21.60;11.33;;;;;;;3.91;68.60;98524.41;146787;1150;104585;-68
2021/01/22 06:21:17;;;;;;;44.95;31.25;;;;;;;3.90;67.72;98527.20;147023;1151;104673;-68
2021/01/22 06:24:21;;;;;;;26.00;15.05;;;;;;;3.91;68.64;98531.50;147063;1150;104555;-66
2021/01/22 06:27:25;;;;;;;22.62;13.80;;;;;;;3.89;67.88;98526.38;147045;1149;104562;-67
2021/01/22 06:30:31;;;;;;;23.52;12.55;;;;;;;3.91;68.56;98536.78;147107;1148;104514;-68
2021/01/22 06:33:35;;;;;;;21.82;11.68;;;;;;;3.96;68.67;98541.59;146998;1148;104479;-67
2021/01/22 06:36:43;;;;;;;20.40;11.00;;;;;;;4.02;68.45;98527.78;146757;1148;105000;-67
2021/01/22 06:39:47;;;;;;;21.70;12.90;;;;;;;4.10;68.75;98522.58;147025;1148;104548;-68
2021/01/22 06:42:51;;;;;;;23.55;11.85;;;;;;;4.17;68.32;98523.59;146883;1148;104558;-68
2021/01/22 06:46:04;;;;;;;21.68;12.15;;;;;;;4.22;67.54;98521.33;147059;1148;104559;-67
2021/01/22 06:49:07;;;;;;;19.27;10.95;;;;;;;4.27;68.26;98512.93;146946;1148;104463;-68
2021/01/22 06:52:12;;;;;;;21.95;11.20;;;;;;;4.28;67.79;98515.42;147063;1148;104651;-67
2021/01/22 06:55:15;;;;;;;28.00;14.30;;;;;;;4.31;67.86;98517.77;146817;1148;104918;-67
2021/01/22 06:58:25;;;;;;;341.68;168.05;;;;;;;4.35;68.22;98512.15;146561;1148;104567;-68
2021/01/22 07:01:35;;;;;;;1227.00;638.80;;;;;;;4.38;68.55;98501.29;147027;1148;104582;-68
2021/01/22 07:04:41;;;;;;;772.77;381.68;;;;;;;4.38;68.60;98490.73;146847;1148;104482;-69
2021/01/22 07:07:46;;;;;;;1058.98;556.33;;;;;;;4.39;68.35;98492.37;147004;1148;104627;-69
2021/01/22 07:11:02;;;;;;;848.05;412.10;;;;;;;4.41;67.89;98495.70;146748;1148;104521;-71
2021/01/22 07:14:05;;;;;;;1016.23;531.63;;;;;;;4.41;68.26;98495.70;146607;1148;104486;-69
2021/01/22 07:17:17;;;;;;;965.83;474.08;;;;;;;4.43;68.13;98497.20;146656;1148;104478;-69
2021/01/22 07:20:20;;;;;;;1261.43;633.23;;;;;;;4.52;68.24;98496.26;147203;1148;104508;-69
2021/01/22 07:23:27;;;;;;;882.40;498.17;;;;;;;4.64;68.54;98485.42;147162;1148;104463;-68
2021/01/22 07:26:34;;;;;;;730.70;414.27;;;;;;;4.77;68.21;98477.02;147067;1149;104476;-69
2021/01/22 07:29:38;;;;;;;922.50;581.83;;;;;;;4.86;68.01;98476.07;147036;1149;104557;-67
2021/01/22 07:32:42;;;;;;;602.25;392.13;;;;;;;4.95;68.36;98477.76;147017;1150;105144;-67
2021/01/22 07:35:46;;;;;;;357.67;226.20;;;;;;;5.03;67.95;98469.84;147005;1148;104559;-67
2021/01/22 07:38:51;;;;;;;299.40;184.85;;;;;;;5.09;67.83;98463.90;147003;1149;104556;-69
2021/01/22 07:42:06;;;;;;;133.13;78.03;;;;;;;5.15;67.78;98461.61;147044;1150;104501;-70
2021/01/22 07:45:12;;;;;;;343.20;221.77;;;;;;;5.18;67.51;98451.54;147026;1150;104538;-70
2021/01/22 07:48:28;;;;;;;595.30;385.38;;;;;;;5.23;67.18;98446.56;146972;1150;104956;-69
2021/01/22 07:51:33;;;;;;;730.87;465.52;;;;;;;5.29;67.65;98453.02;146875;1150;104508;-68
2021/01/22 07:54:42;;;;;;;854.57;551.82;;;;;;;5.31;67.61;98449.24;147070;1151;104656;-68
2021/01/22 07:57:47;;;;;;;606.37;359.87;;;;;;;5.32;67.52;98444.77;147402;1148;104587;-68
2021/01/22 08:00:50;;;;;;;560.83;293.53;;;;;;;5.34;67.65;98432.21;147012;1150;104604;-69
2021/01/22 08:03:53;;;;;;;742.67;406.73;;;;;;;5.36;67.63;98437.34;147028;1151;104495;-68
2021/01/22 08:06:57;;;;;;;505.20;265.12;;;;;;;5.43;67.35;98433.05;147068;1149;104994;-67
2021/01/22 08:10:00;;;;;;;550.95;313.10;;;;;;;5.51;67.31;98422.47;147313;1148;104639;-70
2021/01/22 08:13:03;;;;;;;203.25;96.10;;;;;;;5.60;67.42;98416.19;147144;1148;104465;-71
2021/01/22 08:16:08;;;;;;;572.52;344.18;;;;;;;5.68;67.79;98420.64;147019;1151;104498;-70
2021/01/22 08:19:11;;;;;;;221.47;101.78;;;;;;;5.76;67.26;98415.33;147154;1149;104561;-69
2021/01/22 08:22:17;;;;;;;118.77;55.50;;;;;;;5.80;67.22;98408.70;147159;1150;104559;-68
2021/01/22 08:25:31;;;;;;;292.10;154.57;;;;;;;5.86;67.61;98413.32;146995;1148;104548;-68
2021/01/22 08:28:35;;;;;;;238.90;130.97;;;;;;;5.92;67.24;98411.00;146834;1149;104494;-70
2021/01/22 08:31:40;;;;;;;139.93;70.73;;;;;;;5.97;67.07;98419.31;146969;1150;104548;-68
2021/01/22 08:34:45;;;;;;;335.90;196.00;;;;;;;6.00;66.38;98421.60;147084;1149;104456;-68
2021/01/22 08:37:49;;;;;;;219.23;110.77;;;;;;;6.02;66.79;98419.61;147083;1149;104550;-69
2021/01/22 08:40:52;;;;;;;321.00;171.87;;;;;;;6.04;67.03;98413.17;147159;1150;104627;-68
2021/01/22 08:43:56;;;;;;;318.07;173.80;;;;;;;6.08;66.64;98408.34;147192;1150;104481;-69
2021/01/22 08:47:00;;;;;;;152.35;73.47;;;;;;;6.13;66.40;98398.07;147142;1150;104563;-68
2021/01/22 08:50:06;;;;;;;226.00;122.05;;;;;;;6.20;66.51;98392.94;147035;1150;104562;-68
2021/01/22 08:53:12;;;;;;;180.37;100.42;;;;;;;6.22;66.30;98386.46;147243;1150;104560;-68
2021/01/22 08:56:18;;;;;;;57.55;30.52;;;;;;;6.29;66.75;98384.78;147157;1148;104828;-69
2021/01/22 08:59:21;;;;;;;102.45;64.58;;;;;;;6.37;67.32;98393.67;147136;1150;104563;-68
2021/01/22 09:02:39;;;;;;;93.27;63.00;;;;;;;6.43;66.31;98383.23;147149;1148;104559;-68
2021/01/22 09:05:50;;;;;;;45.05;32.40;;;;;;;6.60;66.43;98380.48;146935;1150;104590;-69
2021/01/22 09:08:57;;;;;;;;;;;;;;;6.77;66.38;98384.70;146930;1149;104475;-69
2021/01/22 09:12:08;;;;;;;34.67;23.17;;;;;;;6.95;66.00;98392.39;146776;1148;104598;-68
2021/01/22 09:15:16;;;;;;;31.12;21.50;;;;;;;7.10;65.58;98395.09;147214;1148;104486;-69
2021/01/22 09:18:21;;;;;;;27.60;16.55;;;;;;;7.23;66.30;98382.06;147168;1148;104501;-69
2021/01/22 09:21:25;;;;;;;23.70;16.42;;;;;;;7.33;66.48;98383.66;147154;1148;104490;-69
2021/01/22 09:24:28;;;;;;;25.25;18.00;;;;;;;7.39;66.21;98383.78;147090;1148;104399;-68
2021/01/22 09:27:33;;;;;;;19.45;11.95;;;;;;;7.42;66.47;98370.14;147100;1148;104628;-69
2021/01/22 09:30:36;;;;;;;16.55;11.12;;;;;;;7.47;65.75;98365.13;146996;1148;104562;-69
2021/01/22 09:33:39;;;;;;;19.10;10.63;;;;;;;7.47;64.83;98351.05;146849;1148;104535;-70
2021/01/22 09:36:43;;;;;;;14.73;8.50;;;;;;;7.51;66.65;98339.06;147082;1148;105660;-70
2021/01/22 09:39:46;;;;;;;18.17;10.45;;;;;;;7.55;65.55;98329.73;146932;1150;104490;-70
2021/01/22 09:42:50;;;;;;;18.82;10.65;;;;;;;7.58;65.40;98342.65;147123;1151;104636;-69
2021/01/22 09:45:55;;;;;;;15.17;9.50;;;;;;;7.53;65.30;98352.16;147110;1148;104534;-70
2021/01/22 09:48:58;;;;;;;18.90;11.95;;;;;;;7.47;65.87;98333.28;146782;1150;104485;-70
2021/01/22 09:52:02;;;;;;;14.55;9.60;;;;;;;7.46;65.45;98346.73;146902;1150;104487;-69
2021/01/22 09:55:08;;;;;;;13.78;8.03;;;;;;;7.44;65.24;98346.90;147136;1150;104553;-69
2021/01/22 09:58:11;;;;;;;13.45;8.83;;;;;;;7.48;65.69;98345.53;147044;1150;104438;-69
2021/01/22 10:01:15;;;;;;;14.95;8.75;;;;;;;7.56;65.36;98343.81;146810;1148;104637;-70
2021/01/22 10:04:18;;;;;;;15.20;9.30;;;;;;;7.59;65.30;98335.50;147109;1150;104957;-70
2021/01/22 10:07:21;;;;;;;12.73;8.53;;;;;;;7.66;66.44;98326.63;147153;1150;104567;-70
2021/01/22 10:10:24;;;;;;;13.05;8.03;;;;;;;7.69;65.41;98325.44;147209;1149;104564;-70
2021/01/22 10:13:28;;;;;;;11.57;7.58;;;;;;;7.69;65.87;98335.23;147220;1148;104634;-69
2021/01/22 10:16:31;;;;;;;14.03;8.48;;;;;;;7.68;65.91;98326.45;147161;1148;104512;-69
2021/01/22 10:19:34;;;;;;;11.85;7.72;;;;;;;7.65;65.32;98324.16;147084;1148;104505;-70
2021/01/22 10:22:38;;;;;;;12.55;8.25;;;;;;;7.65;66.02;98313.53;147116;1148;104562;-70
2021/01/22 10:25:41;;;;;;;12.27;8.23;;;;;;;7.61;65.70;98309.59;147108;1148;104551;-70
2021/01/22 10:28:45;;;;;;;13.60;8.50;;;;;;;7.55;66.03;98312.98;147120;1148;104631;-74
2021/01/22 10:31:49;;;;;;;15.05;8.48;;;;;;;7.48;65.64;98305.72;147142;1148;104931;-71
2021/01/22 10:34:53;;;;;;;13.97;8.50;;;;;;;7.46;65.34;98315.70;146701;1148;104869;-71
2021/01/22 10:37:56;;;;;;;13.93;7.97;;;;;;;7.45;65.08;98314.06;146881;1148;104556;-71
2021/01/22 10:40:59;;;;;;;12.30;7.83;;;;;;;7.46;65.69;98321.00;147147;1150;104499;-70
2021/01/22 10:44:03;;;;;;;18.10;9.90;;;;;;;7.54;66.01;98320.10;147138;1146;104637;-70
2021/01/22 10:47:06;;;;;;;115.13;64.70;;;;;;;7.63;65.53;98311.05;147141;1148;104595;-70
2021/01/22 10:50:11;;;;;;;850.22;519.62;;;;;;;7.71;64.84;98299.53;146979;1148;104554;-70
2021/01/22 10:53:14;;;;;;;326.25;156.85;;;;;;;7.75;66.09;98298.15;146860;1148;104504;-70
2021/01/22 10:56:17;;;;;;;258.30;122.00;;;;;;;7.81;64.83;98305.41;146677;1150;104516;-70
2021/01/22 10:59:21;;;;;;;120.67;58.17;;;;;;;7.85;65.64;98289.91;147009;1148;104572;-70
2021/01/22 11:02:24;;;;;;;143.65;70.55;;;;;;;7.89;64.92;98288.56;147034;1150;104537;-70
2021/01/22 11:05:27;;;;;;;58.28;30.10;;;;;;;7.96;64.68;98286.79;147004;1149;104559;-71
2021/01/22 11:08:30;;;;;;;113.90;60.47;;;;;;;8.03;65.22;98285.05;146517;1149;104516;-70
2021/01/22 11:11:33;;;;;;;357.73;237.17;;;;;;;8.12;65.64;98288.44;146741;1148;104569;-71
2021/01/22 11:14:37;;;;;;;310.90;209.87;;;;;;;8.22;65.43;98273.02;146790;1148;104733;-70
2021/01/22 11:17:40;;;;;;;109.78;67.35;;;;;;;8.30;64.58;98273.92;147058;1145;104476;-70
2021/01/22 11:20:43;;;;;;;154.27;100.82;;;;;;;8.42;65.34;98267.13;147124;1148;104480;-70
2021/01/22 11:23:46;;;;;;;150.05;101.10;;;;;;;8.50;64.65;98264.34;147000;1148;104560;-70
2021/01/22 11:26:49;;;;;;;217.45;150.45;;;;;;;8.51;65.13;98259.88;147081;1150;104560;-70
2021/01/22 11:29:53;;;;;;;148.80;100.90;;;;;;;8.53;65.03;98253.34;146924;1150;105426;-69
2021/01/22 11:32:58;;;;;;;98.72;66.42;;;;;;;8.54;65.09;98254.16;147044;1150;104915;-70
2021/01/22 11:36:01;;;;;;;43.42;26.30;;;;;;;8.51;65.02;98260.69;146865;1151;104544;-71
2021/01/22 11:39:05;;;;;;;44.63;29.27;;;;;;;8.46;64.50;98268.40;146742;1150;104561;-70
2021/01/22 11:42:10;;;;;;;38.15;24.85;;;;;;;8.48;64.72;98261.06;146528;1150;104497;-71
2021/01/22 11:45:15;;;;;;;23.73;15.05;;;;;;;8.51;65.28;98260.69;146494;1150;104648;-70
2021/01/22 11:48:18;;;;;;;28.50;17.05;;;;;;;8.52;64.73;98253.53;146527;1150;104566;-70
2021/01/22 11:51:21;;;;;;;49.80;30.37;;;;;;;8.52;64.37;98251.69;146973;1150;104477;-70
2021/01/22 11:54:25;;;;;;;38.63;23.05;;;;;;;8.54;63.88;98268.27;146845;1151;104500;-70
2021/01/22 11:57:28;;;;;;;31.10;18.52;;;;;;;8.49;64.20;98257.41;146598;1149;104548;-71
2021/01/22 12:00:31;;;;;;;20.57;11.63;;;;;;;8.48;64.62;98258.40;146535;1150;104605;-70
2021/01/22 12:03:34;;;;;;;22.98;12.78;;;;;;;8.48;64.18;98255.73;146765;1149;104515;-70
2021/01/22 12:06:38;;;;;;;26.85;11.97;;;;;;;8.41;64.55;98254.81;146505;1150;104582;-70
2021/01/22 12:09:41;;;;;;;22.60;13.20;;;;;;;8.36;65.09;98251.91;146475;1150;104562;-69
2021/01/22 12:12:44;;;;;;;20.90;11.30;;;;;;;8.31;64.74;98243.67;146565;1151;104530;-69
2021/01/22 12:15:47;;;;;;;21.20;12.00;;;;;;;8.18;64.95;98250.50;146459;1150;104637;-69
2021/01/22 12:18:51;;;;;;;19.62;10.82;;;;;;;8.11;64.93;98254.09;146726;1150;104455;-70
2021/01/22 12:21:54;;;;;;;20.68;10.93;;;;;;;8.10;64.61;98242.62;146586;1149;104463;-69
2021/01/22 12:24:57;;;;;;;21.47;11.10;;;;;;;8.14;64.80;98238.60;146501;1150;104553;-69
2021/01/22 12:28:00;;;;;;;22.25;11.15;;;;;;;8.24;65.05;98236.45;146784;1150;104591;-68
2021/01/22 12:31:04;;;;;;;19.52;10.70;;;;;;;8.34;64.62;98249.44;146812;1150;104625;-69
2021/01/22 12:34:07;;;;;;;19.80;10.72;;;;;;;8.40;64.42;98246.02;146517;1151;104478;-69
2021/01/22 12:37:10;;;;;;;18.62;11.65;;;;;;;8.42;63.95;98245.88;146883;1148;104511;-69
2021/01/22 12:40:16;;;;;;;23.87;12.37;;;;;;;8.41;64.44;98246.84;146746;1150;104953;-69
2021/01/22 12:43:19;;;;;;;21.03;12.17;;;;;;;8.45;65.09;98238.34;147089;1150;104556;-69
2021/01/22 12:46:22;;;;;;;24.23;14.95;;;;;;;8.55;65.08;98246.01;146976;1148;104596;-69
2021/01/22 12:49:26;;;;;;;21.02;11.43;;;;;;;8.61;64.51;98249.75;147008;1151;104508;-69
2021/01/22 12:52:29;;;;;;;21.55;11.83;;;;;;;8.64;64.57;98241.37;146869;1150;104594;-69
2021/01/22 12:55:32;;;;;;;20.50;10.70;;;;;;;8.69;64.68;98254.11;146691;1149;104553;-71
2021/01/22 12:58:35;;;;;;;16.93;9.53;;;;;;;8.73;64.42;98252.72;146630;1149;104932;-70
2021/01/22 13:01:39;;;;;;;19.20;11.10;;;;;;;8.78;64.34;98271.59;146923;1150;104633;-69
2021/01/22 13:04:42;;;;;;;21.12;11.28;;;;;;;8.78;64.68;98269.75;147074;1150;104569;-69
2021/01/22 13:07:46;;;;;;;18.07;10.60;;;;;;;8.79;64.65;98262.58;147021;1149;104429;-69
2021/01/22 13:10:49;;;;;;;19.05;10.93;;;;;;;8.85;64.55;98261.81;147096;1149;104482;-70
2021/01/22 13:13:52;;;;;;;19.12;11.20;;;;;;;8.88;64.77;98250.80;147020;1149;104540;-69
2021/01/22 13:16:55;;;;;;;45.92;28.75;;;;;;;8.94;64.65;98254.54;147018;1150;104645;-69
2021/01/22 13:19:59;;;;;;;23.90;13.13;;;;;;;8.96;64.40;98258.64;147072;1150;104622;-70
2021/01/22 13:23:03;;;;;;;26.82;14.58;;;;;;;8.96;64.14;98252.51;147028;1151;104483;-68
2021/01/22 13:26:06;;;;;;;22.13;11.67;;;;;;;8.93;64.06;98248.41;147054;1148;104482;-70
2021/01/22 13:29:09;;;;;;;46.23;22.95;;;;;;;8.88;64.78;98261.45;146834;1149;104570;-68
2021/01/22 13:32:12;;;;;;;117.67;61.20;;;;;;;8.82;64.46;98255.05;147054;1148;104575;-70
2021/01/22 13:35:16;;;;;;;54.03;28.95;;;;;;;8.75;64.41;98256.00;147121;1148;104516;-70
2021/01/22 13:38:19;;;;;;;23.92;12.50;;;;;;;8.64;64.53;98259.98;147034;1148;104485;-69
2021/01/22 13:41:22;;;;;;;95.83;57.95;;;;;;;8.55;63.86;98266.45;147064;1148;104452;-72
2021/01/22 13:44:25;;;;;;;19.05;11.10;;;;;;;8.43;64.87;98268.80;146747;1148;104582;-70
2021/01/22 13:47:28;;;;;;;21.10;10.67;;;;;;;8.39;64.35;98263.00;146628;1150;104694;-71
2021/01/22 13:50:32;;;;;;;20.32;9.93;;;;;;;8.37;64.12;98269.48;146674;1150;104522;-70
2021/01/22 13:53:35;;;;;;;17.35;9.70;;;;;;;8.37;64.79;98266.83;146893;1149;104483;-69
2021/01/22 13:56:38;;;;;;;19.15;10.30;;;;;;;8.35;64.27;98284.80;146890;1148;104917;-70